sensor_id;sensor_type;location;lat;lon;timestamp;pressure;altitude;pressure_sealevel;temperature;humidity
3254;BME280;1639;42.804;23.342;2023-01-29T00:01:15;74525.81;;;-148.52;100.00
3254;BME280;1639;42.804;23.342;2023-01-29T00:03:40;74529.94;;;-148.52;100.00
3254;BME280;1639;42.804;23.342;2023-01-29T00:06:07;74523.72;;;-148.52;100.00
3254;BME280;1639;42.804;23.342;2023-01-29T00:08:34;74527.88;;;-148.52;100.00
3254;BME280;1639;42.804;23.342;2023-01-29T00:11:01;74532.00;;;-148.52;100.00
3254;BME280;1639;42.804;23.342;2023-01-29T00:13:27;74523.72;;;-148.52;100.00
3254;BME280;1639;42.804;23.342;2023-01-29T00:15:54;74521.66;;;-148.52;100.00
3254;BME280;1639;42.804;23.342;2023-01-29T00:18:21;74532.00;;;-148.52;100.00
3254;BME280;1639;42.804;23.342;2023-01-29T00:20:46;74532.00;;;-148.52;100.00
3254;BME280;1639;42.804;23.342;2023-01-29T00:23:12;74538.22;;;-148.52;100.00
3254;BME280;1639;42.804;23.342;2023-01-29T00:25:37;74536.16;;;-148.52;100.00
3254;BME280;1639;42.804;23.342;2023-01-29T00:28:03;74536.16;;;-148.52;100.00
3254;BME280;1639;42.804;23.342;2023-01-29T00:30:28;74546.50;;;-148.52;100.00
3254;BME280;1639;42.804;23.342;2023-01-29T00:32:53;74548.56;;;-148.52;100.00
3254;BME280;1639;42.804;23.342;2023-01-29T00:35:19;74540.28;;;-148.52;100.00
3254;BME280;1639;42.804;23.342;2023-01-29T00:37:44;74538.22;;;-148.52;100.00
3254;BME280;1639;42.804;23.342;2023-01-29T00:40:10;74544.44;;;-148.52;100.00
3254;BME280;1639;42.804;23.342;2023-01-29T00:42:35;74542.34;;;-148.52;100.00
3254;BME280;1639;42.804;23.342;2023-01-29T00:45:24;74542.34;;;-148.52;100.00
3254;BME280;1639;42.804;23.342;2023-01-29T00:47:50;74542.34;;;-148.52;100.00
3254;BME280;1639;42.804;23.342;2023-01-29T00:50:15;74542.34;;;-148.52;100.00
3254;BME280;1639;42.804;23.342;2023-01-29T00:52:40;74540.28;;;-148.52;100.00
3254;BME280;1639;42.804;23.342;2023-01-29T00:55:07;74546.50;;;-148.52;100.00
3254;BME280;1639;42.804;23.342;2023-01-29T00:57:33;74544.44;;;-148.52;100.00
3254;BME280;1639;42.804;23.342;2023-01-29T00:59:59;74552.69;;;-148.52;100.00
3254;BME280;1639;42.804;23.342;2023-01-29T01:02:25;74552.69;;;-148.52;100.00
3254;BME280;1639;42.804;23.342;2023-01-29T01:05:11;74552.69;;;-148.52;100.00
3254;BME280;1639;42.804;23.342;2023-01-29T01:07:39;74536.16;;;-148.52;100.00
3254;BME280;1639;42.804;23.342;2023-01-29T01:10:05;74532.00;;;-148.52;100.00
3254;BME280;1639;42.804;23.342;2023-01-29T01:12:48;74550.63;;;-148.52;100.00
3254;BME280;1639;42.804;23.342;2023-01-29T01:15:15;74548.56;;;-148.52;100.00
3254;BME280;1639;42.804;23.342;2023-01-29T01:17:40;74544.44;;;-148.52;100.00
3254;BME280;1639;42.804;23.342;2023-01-29T01:20:06;74538.22;;;-148.52;100.00
3254;BME280;1639;42.804;23.342;2023-01-29T01:22:32;74540.28;;;-148.52;100.00
3254;BME280;1639;42.804;23.342;2023-01-29T01:24:57;74536.16;;;-148.52;100.00
3254;BME280;1639;42.804;23.342;2023-01-29T01:27:23;74540.28;;;-148.52;100.00
3254;BME280;1639;42.804;23.342;2023-01-29T01:29:49;74550.63;;;-148.52;100.00
3254;BME280;1639;42.804;23.342;2023-01-29T01:32:15;74536.16;;;-148.52;100.00
3254;BME280;1639;42.804;23.342;2023-01-29T01:34:40;74536.16;;;-148.52;100.00
3254;BME280;1639;42.804;23.342;2023-01-29T01:37:06;74544.44;;;-148.52;100.00
3254;BME280;1639;42.804;23.342;2023-01-29T01:39:31;74544.44;;;-148.52;100.00
3254;BME280;1639;42.804;23.342;2023-01-29T01:41:57;74544.44;;;-148.52;100.00
3254;BME280;1639;42.804;23.342;2023-01-29T01:45:17;74540.28;;;-148.52;100.00
3254;BME280;1639;42.804;23.342;2023-01-29T01:47:37;74546.50;;;-148.52;100.00
3254;BME280;1639;42.804;23.342;2023-01-29T01:52:35;74546.50;;;-148.52;100.00
3254;BME280;1639;42.804;23.342;2023-01-29T01:55:04;74552.69;;;-148.52;100.00
3254;BME280;1639;42.804;23.342;2023-01-29T01:57:31;74544.44;;;-148.52;100.00
3254;BME280;1639;42.804;23.342;2023-01-29T02:00:08;74546.50;;;-148.52;100.00
3254;BME280;1639;42.804;23.342;2023-01-29T02:02:38;74556.84;;;-148.52;100.00
3254;BME280;1639;42.804;23.342;2023-01-29T02:05:24;74552.69;;;-148.52;100.00
3254;BME280;1639;42.804;23.342;2023-01-29T02:08:08;74546.50;;;-148.52;100.00
3254;BME280;1639;42.804;23.342;2023-01-29T02:10:53;74534.06;;;-148.52;100.00
3254;BME280;1639;42.804;23.342;2023-01-29T02:13:19;74544.44;;;-148.52;100.00
3254;BME280;1639;42.804;23.342;2023-01-29T02:15:45;74546.50;;;-148.52;100.00
3254;BME280;1639;42.804;23.342;2023-01-29T02:18:17;74540.28;;;-148.52;100.00
3254;BME280;1639;42.804;23.342;2023-01-29T02:20:48;74544.44;;;-148.52;100.00
3254;BME280;1639;42.804;23.342;2023-01-29T02:28:39;74529.94;;;-148.52;100.00
3254;BME280;1639;42.804;23.342;2023-01-29T02:36:59;74542.34;;;-148.52;100.00
3254;BME280;1639;42.804;23.342;2023-01-29T02:44:37;74534.06;;;-148.52;100.00
3254;BME280;1639;42.804;23.342;2023-01-29T02:47:08;74534.06;;;-148.52;100.00
3254;BME280;1639;42.804;23.342;2023-01-29T02:49:49;74536.16;;;-148.52;100.00
3254;BME280;1639;42.804;23.342;2023-01-29T02:54:50;74534.06;;;-148.52;100.00
3254;BME280;1639;42.804;23.342;2023-01-29T02:57:25;74525.81;;;-148.52;100.00
3254;BME280;1639;42.804;23.342;2023-01-29T03:00:20;74532.00;;;-148.52;100.00
3254;BME280;1639;42.804;23.342;2023-01-29T03:03:15;74532.00;;;-148.52;100.00
3254;BME280;1639;42.804;23.342;2023-01-29T03:08:27;74534.06;;;-148.52;100.00
3254;BME280;1639;42.804;23.342;2023-01-29T03:11:03;74527.88;;;-148.52;100.00
3254;BME280;1639;42.804;23.342;2023-01-29T03:13:37;74536.16;;;-148.52;100.00
3254;BME280;1639;42.804;23.342;2023-01-29T03:16:12;74540.28;;;-148.52;100.00
3254;BME280;1639;42.804;23.342;2023-01-29T03:18:47;74542.34;;;-148.52;100.00
3254;BME280;1639;42.804;23.342;2023-01-29T03:21:21;74542.34;;;-148.52;100.00
3254;BME280;1639;42.804;23.342;2023-01-29T03:24:08;74554.78;;;-148.52;100.00
3254;BME280;1639;42.804;23.342;2023-01-29T03:26:53;74558.91;;;-148.52;100.00
3254;BME280;1639;42.804;23.342;2023-01-29T03:29:39;74554.78;;;-148.52;100.00
3254;BME280;1639;42.804;23.342;2023-01-29T03:32:26;74563.03;;;-148.52;100.00
3254;BME280;1639;42.804;23.342;2023-01-29T03:34:57;74565.13;;;-148.52;100.00
3254;BME280;1639;42.804;23.342;2023-01-29T03:37:36;74560.97;;;-148.52;100.00
3254;BME280;1639;42.804;23.342;2023-01-29T03:40:06;74569.25;;;-148.52;100.00
3254;BME280;1639;42.804;23.342;2023-01-29T03:42:42;74565.13;;;-148.52;100.00
3254;BME280;1639;42.804;23.342;2023-01-29T03:45:17;74560.97;;;-148.52;100.00
3254;BME280;1639;42.804;23.342;2023-01-29T03:47:57;74558.91;;;-148.52;100.00
3254;BME280;1639;42.804;23.342;2023-01-29T03:51:31;74556.84;;;-148.52;100.00
3254;BME280;1639;42.804;23.342;2023-01-29T03:53:52;74563.03;;;-148.52;100.00
3254;BME280;1639;42.804;23.342;2023-01-29T03:56:54;74560.97;;;-148.52;100.00
3254;BME280;1639;42.804;23.342;2023-01-29T03:59:39;74552.69;;;-148.52;100.00
3254;BME280;1639;42.804;23.342;2023-01-29T04:02:14;74552.69;;;-148.52;100.00
3254;BME280;1639;42.804;23.342;2023-01-29T04:04:46;74540.28;;;-148.52;100.00
3254;BME280;1639;42.804;23.342;2023-01-29T04:07:19;74544.44;;;-148.52;100.00
3254;BME280;1639;42.804;23.342;2023-01-29T04:09:57;74540.28;;;-148.52;100.00
3254;BME280;1639;42.804;23.342;2023-01-29T04:12:29;74544.44;;;-148.52;100.00
3254;BME280;1639;42.804;23.342;2023-01-29T04:14:57;74538.22;;;-148.52;100.00
3254;BME280;1639;42.804;23.342;2023-01-29T04:17:33;74534.06;;;-148.52;100.00
3254;BME280;1639;42.804;23.342;2023-01-29T04:20:01;74536.16;;;-148.52;100.00
3254;BME280;1639;42.804;23.342;2023-01-29T04:22:32;74540.28;;;-148.52;100.00
3254;BME280;1639;42.804;23.342;2023-01-29T04:24:59;74544.44;;;-148.52;100.00
3254;BME280;1639;42.804;23.342;2023-01-29T04:27:55;74536.16;;;-148.52;100.00
3254;BME280;1639;42.804;23.342;2023-01-29T04:30:27;74538.22;;;-148.52;100.00
3254;BME280;1639;42.804;23.342;2023-01-29T04:35:31;74544.44;;;-148.52;100.00
3254;BME280;1639;42.804;23.342;2023-01-29T04:38:11;74548.56;;;-148.52;100.00
3254;BME280;1639;42.804;23.342;2023-01-29T04:43:32;74536.16;;;-148.52;100.00
3254;BME280;1639;42.804;23.342;2023-01-29T04:46:12;74540.28;;;-148.52;100.00
3254;BME280;1639;42.804;23.342;2023-01-29T04:51:18;74532.00;;;-148.52;100.00
3254;BME280;1639;42.804;23.342;2023-01-29T04:53:56;74532.00;;;-148.52;100.00
3254;BME280;1639;42.804;23.342;2023-01-29T04:56:54;74540.28;;;-148.52;100.00
3254;BME280;1639;42.804;23.342;2023-01-29T04:59:34;74548.56;;;-148.52;100.00
3254;BME280;1639;42.804;23.342;2023-01-29T05:02:01;74542.34;;;-148.52;100.00
3254;BME280;1639;42.804;23.342;2023-01-29T05:04:30;74546.50;;;-148.52;100.00
3254;BME280;1639;42.804;23.342;2023-01-29T05:07:02;74548.56;;;-148.52;100.00
3254;BME280;1639;42.804;23.342;2023-01-29T05:09:29;74548.56;;;-148.52;100.00
3254;BME280;1639;42.804;23.342;2023-01-29T05:11:56;74540.28;;;-148.52;100.00
3254;BME280;1639;42.804;23.342;2023-01-29T05:14:23;74538.22;;;-148.52;100.00
3254;BME280;1639;42.804;23.342;2023-01-29T05:16:51;74536.16;;;-148.52;100.00
3254;BME280;1639;42.804;23.342;2023-01-29T05:19:17;74544.44;;;-148.52;100.00
3254;BME280;1639;42.804;23.342;2023-01-29T05:21:48;74550.63;;;-148.52;100.00
3254;BME280;1639;42.804;23.342;2023-01-29T05:24:21;74552.69;;;-148.52;100.00
3254;BME280;1639;42.804;23.342;2023-01-29T05:26:49;74556.84;;;-148.52;100.00
3254;BME280;1639;42.804;23.342;2023-01-29T05:29:33;74556.84;;;-148.52;100.00
3254;BME280;1639;42.804;23.342;2023-01-29T05:31:59;74560.97;;;-148.52;100.00
3254;BME280;1639;42.804;23.342;2023-01-29T05:34:24;74556.84;;;-148.52;100.00
3254;BME280;1639;42.804;23.342;2023-01-29T05:36:50;74569.25;;;-148.52;100.00
3254;BME280;1639;42.804;23.342;2023-01-29T05:39:15;74575.47;;;-148.52;100.00
3254;BME280;1639;42.804;23.342;2023-01-29T05:41:41;74573.38;;;-148.52;100.00
3254;BME280;1639;42.804;23.342;2023-01-29T05:44:09;74577.53;;;-148.52;100.00
3254;BME280;1639;42.804;23.342;2023-01-29T05:46:34;74575.47;;;-148.52;100.00
3254;BME280;1639;42.804;23.342;2023-01-29T05:49:00;74592.00;;;-148.52;100.00
3254;BME280;1639;42.804;23.342;2023-01-29T05:51:25;74583.75;;;-148.52;100.00
3254;BME280;1639;42.804;23.342;2023-01-29T05:53:51;74581.66;;;-148.52;100.00
3254;BME280;1639;42.804;23.342;2023-01-29T05:56:16;74583.75;;;-148.52;100.00
3254;BME280;1639;42.804;23.342;2023-01-29T05:58:41;74585.81;;;-148.52;100.00
3254;BME280;1639;42.804;23.342;2023-01-29T06:01:15;74581.66;;;-148.52;100.00
3254;BME280;1639;42.804;23.342;2023-01-29T06:03:41;74581.66;;;-148.52;100.00
3254;BME280;1639;42.804;23.342;2023-01-29T06:06:07;74579.59;;;-148.52;100.00
3254;BME280;1639;42.804;23.342;2023-01-29T06:08:32;74575.47;;;-148.52;100.00
3254;BME280;1639;42.804;23.342;2023-01-29T06:10:58;74587.88;;;-148.52;100.00
3254;BME280;1639;42.804;23.342;2023-01-29T06:13:23;74581.66;;;-148.52;100.00
3254;BME280;1639;42.804;23.342;2023-01-29T06:15:49;74581.66;;;-148.52;100.00
3254;BME280;1639;42.804;23.342;2023-01-29T06:18:14;74577.53;;;-148.52;100.00
3254;BME280;1639;42.804;23.342;2023-01-29T06:20:39;74573.38;;;-148.52;100.00
3254;BME280;1639;42.804;23.342;2023-01-29T06:23:05;74575.47;;;-148.52;100.00
3254;BME280;1639;42.804;23.342;2023-01-29T06:25:30;74579.59;;;-148.52;100.00
3254;BME280;1639;42.804;23.342;2023-01-29T06:27:56;74583.75;;;-148.52;100.00
3254;BME280;1639;42.804;23.342;2023-01-29T06:30:21;74575.47;;;-148.52;100.00
3254;BME280;1639;42.804;23.342;2023-01-29T06:32:46;74571.31;;;-148.52;100.00
3254;BME280;1639;42.804;23.342;2023-01-29T06:35:12;74575.47;;;-148.52;100.00
3254;BME280;1639;42.804;23.342;2023-01-29T06:37:37;74573.38;;;-148.52;100.00
3254;BME280;1639;42.804;23.342;2023-01-29T06:40:03;74577.53;;;-148.52;100.00
3254;BME280;1639;42.804;23.342;2023-01-29T06:42:28;74571.31;;;-148.52;100.00
3254;BME280;1639;42.804;23.342;2023-01-29T06:44:54;74577.53;;;-148.52;100.00
3254;BME280;1639;42.804;23.342;2023-01-29T06:47:20;74581.66;;;-148.52;100.00
3254;BME280;1639;42.804;23.342;2023-01-29T06:49:45;74567.19;;;-148.52;100.00
3254;BME280;1639;42.804;23.342;2023-01-29T06:52:11;74565.13;;;-148.52;100.00
3254;BME280;1639;42.804;23.342;2023-01-29T06:54:36;74556.84;;;-148.52;100.00
3254;BME280;1639;42.804;23.342;2023-01-29T06:57:01;74565.13;;;-148.52;100.00
3254;BME280;1639;42.804;23.342;2023-01-29T06:59:27;74563.03;;;-148.52;100.00
3254;BME280;1639;42.804;23.342;2023-01-29T07:01:52;74565.13;;;-148.52;100.00
3254;BME280;1639;42.804;23.342;2023-01-29T07:04:17;74558.91;;;-148.52;100.00
3254;BME280;1639;42.804;23.342;2023-01-29T07:06:43;74560.97;;;-148.52;100.00
3254;BME280;1639;42.804;23.342;2023-01-29T07:09:13;74565.13;;;-148.52;100.00
3254;BME280;1639;42.804;23.342;2023-01-29T07:11:39;74569.25;;;-148.52;100.00
3254;BME280;1639;42.804;23.342;2023-01-29T07:14:04;74569.25;;;-148.52;100.00
3254;BME280;1639;42.804;23.342;2023-01-29T07:16:30;74579.59;;;-148.52;100.00
3254;BME280;1639;42.804;23.342;2023-01-29T07:18:56;74569.25;;;-148.52;100.00
3254;BME280;1639;42.804;23.342;2023-01-29T07:21:21;74577.53;;;-148.52;100.00
3254;BME280;1639;42.804;23.342;2023-01-29T07:23:47;74585.81;;;-148.52;100.00
3254;BME280;1639;42.804;23.342;2023-01-29T07:26:12;74581.66;;;-148.52;100.00
3254;BME280;1639;42.804;23.342;2023-01-29T07:28:38;74583.75;;;-148.52;100.00
3254;BME280;1639;42.804;23.342;2023-01-29T07:31:05;74583.75;;;-148.52;100.00
3254;BME280;1639;42.804;23.342;2023-01-29T07:33:31;74581.66;;;-148.52;100.00
3254;BME280;1639;42.804;23.342;2023-01-29T07:35:56;74577.53;;;-148.52;100.00
3254;BME280;1639;42.804;23.342;2023-01-29T07:38:22;74573.38;;;-148.52;100.00
3254;BME280;1639;42.804;23.342;2023-01-29T07:40:47;74571.31;;;-148.52;100.00
3254;BME280;1639;42.804;23.342;2023-01-29T07:43:13;74569.25;;;-148.52;100.00
3254;BME280;1639;42.804;23.342;2023-01-29T07:45:39;74577.53;;;-148.52;100.00
3254;BME280;1639;42.804;23.342;2023-01-29T07:48:06;74565.13;;;-148.52;100.00
3254;BME280;1639;42.804;23.342;2023-01-29T07:50:33;74569.25;;;-148.52;100.00
3254;BME280;1639;42.804;23.342;2023-01-29T07:52:59;74558.91;;;-148.52;100.00
3254;BME280;1639;42.804;23.342;2023-01-29T07:55:24;74554.78;;;-148.52;100.00
3254;BME280;1639;42.804;23.342;2023-01-29T07:58:00;74552.69;;;-148.52;100.00
3254;BME280;1639;42.804;23.342;2023-01-29T08:00:27;74552.69;;;-148.52;100.00
3254;BME280;1639;42.804;23.342;2023-01-29T08:02:52;74548.56;;;-148.52;100.00
3254;BME280;1639;42.804;23.342;2023-01-29T08:05:18;74552.69;;;-148.52;100.00
3254;BME280;1639;42.804;23.342;2023-01-29T08:07:44;74546.50;;;-148.52;100.00
3254;BME280;1639;42.804;23.342;2023-01-29T08:10:10;74554.78;;;-148.52;100.00
3254;BME280;1639;42.804;23.342;2023-01-29T08:12:35;74552.69;;;-148.52;100.00
3254;BME280;1639;42.804;23.342;2023-01-29T08:15:00;74550.63;;;-148.52;100.00
3254;BME280;1639;42.804;23.342;2023-01-29T08:17:26;74544.44;;;-148.52;100.00
3254;BME280;1639;42.804;23.342;2023-01-29T08:19:51;74542.34;;;-148.52;100.00
3254;BME280;1639;42.804;23.342;2023-01-29T08:22:17;74540.28;;;-148.52;100.00
3254;BME280;1639;42.804;23.342;2023-01-29T08:24:42;74536.16;;;-148.52;100.00
3254;BME280;1639;42.804;23.342;2023-01-29T08:27:08;74534.06;;;-148.52;100.00
3254;BME280;1639;42.804;23.342;2023-01-29T08:29:33;74532.00;;;-148.52;100.00
3254;BME280;1639;42.804;23.342;2023-01-29T08:31:59;74527.88;;;-148.52;100.00
3254;BME280;1639;42.804;23.342;2023-01-29T08:34:25;74532.00;;;-148.52;100.00
3254;BME280;1639;42.804;23.342;2023-01-29T08:36:51;74532.00;;;-148.52;100.00
3254;BME280;1639;42.804;23.342;2023-01-29T08:39:17;74536.16;;;-148.52;100.00
3254;BME280;1639;42.804;23.342;2023-01-29T08:41:42;74534.06;;;-148.52;100.00
3254;BME280;1639;42.804;23.342;2023-01-29T08:44:08;74538.22;;;-148.52;100.00
3254;BME280;1639;42.804;23.342;2023-01-29T08:46:33;74540.28;;;-148.52;100.00
3254;BME280;1639;42.804;23.342;2023-01-29T08:48:59;74503.03;;;-148.52;100.00
3254;BME280;1639;42.804;23.342;2023-01-29T08:51:24;74521.66;;;-148.52;100.00
3254;BME280;1639;42.804;23.342;2023-01-29T08:53:51;74527.88;;;-148.52;100.00
3254;BME280;1639;42.804;23.342;2023-01-29T08:56:16;74525.81;;;-148.52;100.00
3254;BME280;1639;42.804;23.342;2023-01-29T08:58:42;74540.28;;;-148.52;100.00
3254;BME280;1639;42.804;23.342;2023-01-29T09:01:10;74540.28;;;-148.52;100.00
3254;BME280;1639;42.804;23.342;2023-01-29T09:03:35;74529.94;;;-148.52;100.00
3254;BME280;1639;42.804;23.342;2023-01-29T09:06:01;74532.00;;;-148.52;100.00
3254;BME280;1639;42.804;23.342;2023-01-29T09:08:27;74532.00;;;-148.52;100.00
3254;BME280;1639;42.804;23.342;2023-01-29T09:10:53;74540.28;;;-148.52;100.00
3254;BME280;1639;42.804;23.342;2023-01-29T09:13:18;74548.56;;;-148.52;100.00
3254;BME280;1639;42.804;23.342;2023-01-29T09:15:43;74542.34;;;-148.52;100.00
3254;BME280;1639;42.804;23.342;2023-01-29T09:18:09;74538.22;;;-148.52;100.00
3254;BME280;1639;42.804;23.342;2023-01-29T09:20:34;74527.88;;;-148.52;100.00
3254;BME280;1639;42.804;23.342;2023-01-29T09:23:04;74505.13;;;-148.52;100.00
3254;BME280;1639;42.804;23.342;2023-01-29T09:25:29;74490.63;;;-148.52;100.00
3254;BME280;1639;42.804;23.342;2023-01-29T09:27:54;74492.69;;;-148.52;100.00
3254;BME280;1639;42.804;23.342;2023-01-29T09:30:20;74492.69;;;-148.52;100.00
3254;BME280;1639;42.804;23.342;2023-01-29T09:32:45;74503.03;;;-148.52;100.00
3254;BME280;1639;42.804;23.342;2023-01-29T09:35:11;74492.69;;;-148.52;100.00
3254;BME280;1639;42.804;23.342;2023-01-29T09:37:36;74490.63;;;-148.52;100.00
3254;BME280;1639;42.804;23.342;2023-01-29T09:40:02;74490.63;;;-148.52;100.00
3254;BME280;1639;42.804;23.342;2023-01-29T09:42:33;74503.03;;;-148.52;100.00
3254;BME280;1639;42.804;23.342;2023-01-29T09:45:18;74503.03;;;-148.52;100.00
3254;BME280;1639;42.804;23.342;2023-01-29T09:47:45;74509.25;;;-148.52;100.00
3254;BME280;1639;42.804;23.342;2023-01-29T09:50:24;74521.66;;;-148.52;100.00
3254;BME280;1639;42.804;23.342;2023-01-29T09:55:42;74544.44;;;-148.52;100.00
3254;BME280;1639;42.804;23.342;2023-01-29T09:58:33;74538.22;;;-148.52;100.00
3254;BME280;1639;42.804;23.342;2023-01-29T10:04:13;74532.00;;;-148.52;100.00
3254;BME280;1639;42.804;23.342;2023-01-29T10:07:24;74515.47;;;-148.52;100.00
3254;BME280;1639;42.804;23.342;2023-01-29T10:20:56;74467.88;;;-148.52;100.00
3254;BME280;1639;42.804;23.342;2023-01-29T10:23:31;74457.53;;;-148.52;100.00
3254;BME280;1639;42.804;23.342;2023-01-29T10:25:57;74453.38;;;-148.52;100.00
3254;BME280;1639;42.804;23.342;2023-01-29T10:31:06;74459.59;;;-148.52;100.00
3254;BME280;1639;42.804;23.342;2023-01-29T10:33:42;74455.47;;;-148.52;100.00
3254;BME280;1639;42.804;23.342;2023-01-29T10:36:12;74449.25;;;-148.52;100.00
3254;BME280;1639;42.804;23.342;2023-01-29T10:38:48;74449.25;;;-148.52;100.00
3254;BME280;1639;42.804;23.342;2023-01-29T11:00:24;74474.06;;;-148.52;100.00
3254;BME280;1639;42.804;23.342;2023-01-29T11:02:51;74472.00;;;-148.52;100.00
3254;BME280;1639;42.804;23.342;2023-01-29T11:05:35;74453.38;;;-148.52;100.00
3254;BME280;1639;42.804;23.342;2023-01-29T11:08:20;74438.91;;;-148.52;100.00
3254;BME280;1639;42.804;23.342;2023-01-29T11:11:03;74412.00;;;-148.52;100.00
3254;BME280;1639;42.804;23.342;2023-01-29T11:13:37;74424.41;;;-148.52;100.00
3254;BME280;1639;42.804;23.342;2023-01-29T11:16:04;74422.34;;;-148.52;100.00
3254;BME280;1639;42.804;23.342;2023-01-29T11:18:55;74424.41;;;-148.52;100.00
3254;BME280;1639;42.804;23.342;2023-01-29T11:21:22;74420.28;;;-148.52;100.00
3254;BME280;1639;42.804;23.342;2023-01-29T11:23:48;74409.94;;;-148.52;100.00
3254;BME280;1639;42.804;23.342;2023-01-29T11:26:18;74401.66;;;-148.52;100.00
3254;BME280;1639;42.804;23.342;2023-01-29T11:28:47;74399.59;;;-148.52;100.00
3254;BME280;1639;42.804;23.342;2023-01-29T11:31:25;74389.25;;;-148.52;100.00
3254;BME280;1639;42.804;23.342;2023-01-29T11:34:03;74391.31;;;-148.52;100.00
3254;BME280;1639;42.804;23.342;2023-01-29T11:36:37;74378.91;;;-148.52;100.00
3254;BME280;1639;42.804;23.342;2023-01-29T11:39:19;74374.78;;;-148.52;100.00
3254;BME280;1639;42.804;23.342;2023-01-29T11:44:18;74362.34;;;-148.52;100.00
3254;BME280;1639;42.804;23.342;2023-01-29T11:46:44;74378.91;;;-148.52;100.00
3254;BME280;1639;42.804;23.342;2023-01-29T11:49:20;74387.19;;;-148.52;100.00
3254;BME280;1639;42.804;23.342;2023-01-29T11:51:53;74378.91;;;-148.52;100.00
3254;BME280;1639;42.804;23.342;2023-01-29T11:54:20;74376.84;;;-148.52;100.00
3254;BME280;1639;42.804;23.342;2023-01-29T11:56:49;74395.47;;;-148.52;100.00
3254;BME280;1639;42.804;23.342;2023-01-29T11:59:45;74389.25;;;-148.52;100.00
3254;BME280;1639;42.804;23.342;2023-01-29T12:04:49;74399.59;;;-148.52;100.00
3254;BME280;1639;42.804;23.342;2023-01-29T12:07:16;74405.81;;;-148.52;100.00
3254;BME280;1639;42.804;23.342;2023-01-29T12:09:56;74397.53;;;-148.52;100.00
3254;BME280;1639;42.804;23.342;2023-01-29T12:12:30;74397.53;;;-148.52;100.00
3254;BME280;1639;42.804;23.342;2023-01-29T12:17:29;74391.31;;;-148.52;100.00
3254;BME280;1639;42.804;23.342;2023-01-29T12:20:12;74389.25;;;-148.52;100.00
3254;BME280;1639;42.804;23.342;2023-01-29T12:22:51;74387.19;;;-148.52;100.00
3254;BME280;1639;42.804;23.342;2023-01-29T12:25:41;74368.56;;;-148.52;100.00
3254;BME280;1639;42.804;23.342;2023-01-29T12:36:18;74347.88;;;-148.52;100.00
3254;BME280;1639;42.804;23.342;2023-01-29T12:38:46;74352.00;;;-148.52;100.00
3254;BME280;1639;42.804;23.342;2023-01-29T12:44:41;74349.94;;;-148.52;100.00
3254;BME280;1639;42.804;23.342;2023-01-29T12:47:33;74337.53;;;-148.52;100.00
3254;BME280;1639;42.804;23.342;2023-01-29T12:57:54;74304.44;;;-148.52;100.00
3254;BME280;1639;42.804;23.342;2023-01-29T13:00:24;74300.28;;;-148.52;100.00
3254;BME280;1639;42.804;23.342;2023-01-29T13:03:02;74300.28;;;-148.52;100.00
3254;BME280;1639;42.804;23.342;2023-01-29T13:05:44;74304.44;;;-148.52;100.00
3254;BME280;1639;42.804;23.342;2023-01-29T13:08:16;74300.28;;;-148.52;100.00
3254;BME280;1639;42.804;23.342;2023-01-29T13:10:48;74300.28;;;-148.52;100.00
3254;BME280;1639;42.804;23.342;2023-01-29T13:13:23;74318.91;;;-148.52;100.00
3254;BME280;1639;42.804;23.342;2023-01-29T13:15:52;74337.53;;;-148.52;100.00
3254;BME280;1639;42.804;23.342;2023-01-29T13:18:25;74335.47;;;-148.52;100.00
3254;BME280;1639;42.804;23.342;2023-01-29T13:20:54;74349.94;;;-148.52;100.00
3254;BME280;1639;42.804;23.342;2023-01-29T13:23:23;74362.34;;;-148.52;100.00
3254;BME280;1639;42.804;23.342;2023-01-29T13:25:52;74354.06;;;-148.52;100.00
3254;BME280;1639;42.804;23.342;2023-01-29T13:28:21;74372.69;;;-148.52;100.00
3254;BME280;1639;42.804;23.342;2023-01-29T13:31:22;74376.84;;;-148.52;100.00
3254;BME280;1639;42.804;23.342;2023-01-29T13:34:06;74385.13;;;-148.52;100.00
3254;BME280;1639;42.804;23.342;2023-01-29T13:36:32;74399.59;;;-148.52;100.00
3254;BME280;1639;42.804;23.342;2023-01-29T13:39:06;74401.66;;;-148.52;100.00
3254;BME280;1639;42.804;23.342;2023-01-29T13:41:37;74412.00;;;-148.52;100.00
3254;BME280;1639;42.804;23.342;2023-01-29T13:44:05;74418.22;;;-148.52;100.00
3254;BME280;1639;42.804;23.342;2023-01-29T13:46:33;74414.09;;;-148.52;100.00
3254;BME280;1639;42.804;23.342;2023-01-29T13:48:58;74418.22;;;-148.52;100.00
3254;BME280;1639;42.804;23.342;2023-01-29T13:51:34;74424.41;;;-148.52;100.00
3254;BME280;1639;42.804;23.342;2023-01-29T13:54:06;74422.34;;;-148.52;100.00
3254;BME280;1639;42.804;23.342;2023-01-29T13:59:05;74405.81;;;-148.52;100.00
3254;BME280;1639;42.804;23.342;2023-01-29T14:04:29;74393.38;;;-148.52;100.00
3254;BME280;1639;42.804;23.342;2023-01-29T14:06:58;74383.03;;;-148.52;100.00
3254;BME280;1639;42.804;23.342;2023-01-29T14:12:36;74366.50;;;-148.52;100.00
3254;BME280;1639;42.804;23.342;2023-01-29T14:15:27;74374.78;;;-148.52;100.00
3254;BME280;1639;42.804;23.342;2023-01-29T14:20:50;74399.59;;;-148.52;100.00
3254;BME280;1639;42.804;23.342;2023-01-29T14:25:48;74414.09;;;-148.52;100.00
3254;BME280;1639;42.804;23.342;2023-01-29T14:28:20;74420.28;;;-148.52;100.00
3254;BME280;1639;42.804;23.342;2023-01-29T14:30:47;74430.63;;;-148.52;100.00
3254;BME280;1639;42.804;23.342;2023-01-29T14:33:26;74443.03;;;-148.52;100.00
3254;BME280;1639;42.804;23.342;2023-01-29T14:35:54;74451.31;;;-148.52;100.00
3254;BME280;1639;42.804;23.342;2023-01-29T14:38:22;74463.72;;;-148.52;100.00
3254;BME280;1639;42.804;23.342;2023-01-29T14:40:49;74474.06;;;-148.52;100.00
3254;BME280;1639;42.804;23.342;2023-01-29T14:43:16;74478.22;;;-148.52;100.00
3254;BME280;1639;42.804;23.342;2023-01-29T14:45:45;74486.50;;;-148.52;100.00
3254;BME280;1639;42.804;23.342;2023-01-29T15:06:14;74565.13;;;-148.52;100.00
3254;BME280;1639;42.804;23.342;2023-01-29T15:08:58;74567.19;;;-148.52;100.00